Latest Weather Observations for Yamba

IDN60801

Issued at 2:35 pm EST Thursday 28 August 2014 (issued every 30 minutes, with the page automatically refreshed every 10 minutes)

About weather observations | Map of weather stations | Latest weather observations for NSW | Other Formats
Station Details ID: 058012 Name: YAMBA PILOT STATION Lat: -29.43 Lon: 153.36 Height: 27.4 m
Data from the previous 72 hours. | See also: Recent months at Yamba
Date/Time
EST
Temp
°C
App
Temp
°C
Dew
Point
Rel
Hum
%
Delta-T
°C
Wind Press
QNH
hPa
Press
MSL
hPa
Rain
since 9 am
mm
Dir
 
Spd
km/h
Gust
km/h
Spd
kts
Gust
kts
28/02:30pm 19.2 14.8 14.0 72 3.0 SSE 30 43 16 23 1019.1 - 0.0
28/02:11pm 19.2 14.6 14.7 75 2.6 SSE 32 50 17 27 1019.2 - 0.0
28/02:00pm 19.8 16.1 15.9 78 2.3 SSE 30 48 16 26 1019.2 - 0.0
28/01:30pm 19.7 15.6 16.0 79 2.2 SSE 32 57 17 31 1019.0 - 0.0
28/01:00pm 19.6 15.4 16.3 81 2.0 SSE 33 57 18 31 1018.9 - 0.0
28/12:37pm 19.8 15.8 16.3 80 2.1 SSE 32 50 17 27 1018.9 - 0.0
28/12:30pm 19.4 14.9 16.4 83 1.8 SSE 35 50 19 27 1018.9 - 0.0
28/12:00pm 19.9 16.3 16.3 80 2.2 SSE 30 48 16 26 1019.2 1019.2 0.0
28/11:34am 19.8 15.2 15.0 74 2.8 SSE 33 52 18 28 1019.2 - 0.0
28/11:30am 19.8 15.8 16.3 80 2.1 SSE 32 46 17 25 1019.3 - 0.0
28/11:00am 19.5 14.8 15.8 79 2.2 SSE 35 54 19 29 1019.2 - 0.0
28/10:30am 19.6 14.5 15.9 79 2.2 SSE 37 57 20 31 1019.2 - 0.0
28/10:03am 19.2 13.6 15.5 79 2.2 SSE 39 65 21 35 1019.1 - 0.0
28/10:02am 19.2 13.6 15.5 79 2.2 SSE 39 65 21 35 1019.1 - 0.0
28/10:00am 19.9 15.5 16.7 82 1.9 SSE 35 50 19 27 1019.1 - 0.0
28/09:30am 19.3 13.6 16.2 82 1.9 SSE 41 65 22 35 1018.9 - 0.0
28/09:05am 19.0 13.3 15.3 79 2.2 SSE 39 57 21 31 1018.6 - 0.0
28/09:00am 19.0 14.0 16.2 84 1.7 SSE 37 56 20 30 1018.6 1018.6 58.2
28/08:31am 18.9 13.5 15.9 83 1.8 SSE 39 57 21 31 1018.3 - 58.0
28/08:30am 18.8 12.9 15.7 82 1.8 SSE 41 57 22 31 1018.3 - 58.0
28/08:00am 18.5 12.0 15.2 81 1.9 SSE 43 61 23 33 1017.9 - 58.2
28/07:30am 18.4 12.8 15.5 83 1.7 SSE 39 59 21 32 1017.6 - 58.0
28/07:00am 18.0 12.9 15.8 87 1.3 SSE 37 57 20 31 1017.2 - 58.2
28/06:36am 17.8 13.5 16.0 89 1.1 SSE 33 52 18 28 1017.0 - 58.0
28/06:30am 17.8 13.6 16.1 90 1.0 SSE 33 48 18 26 1017.0 - 58.0
28/06:00am 17.8 13.0 15.6 87 1.3 SSE 35 54 19 29 1016.6 1016.5 58.2
28/05:30am 17.8 13.3 16.3 91 0.9 SSE 35 56 19 30 1016.1 - 58.0
28/05:05am 17.9 13.3 16.2 90 1.0 SSE 35 54 19 29 1016.0 - 58.2
28/05:04am 17.9 13.3 16.2 90 1.0 SSE 35 54 19 29 1016.0 - 58.0
28/05:00am 17.9 12.5 16.1 89 1.1 SSE 39 54 21 29 1015.9 - 58.0
28/04:30am 18.0 12.7 16.3 90 1.0 SSE 39 57 21 31 1015.7 - 58.0
28/04:00am 18.1 12.5 16.6 91 0.9 SSE 41 59 22 32 1015.3 - 58.2
28/03:31am 18.0 13.6 16.7 92 0.8 SSE 35 54 19 29 1015.3 - 58.0
28/03:30am 18.0 13.3 16.9 93 0.7 SSE 37 54 20 29 1015.3 - 58.0
28/03:00am 18.1 13.5 17.1 94 0.6 SSE 37 57 20 31 1015.3 1015.2 58.2
28/02:44am 18.1 13.0 16.8 92 0.8 SSE 39 57 21 31 1015.2 - 58.0
28/02:30am 18.2 13.6 17.2 94 0.6 SSE 37 50 20 27 1015.2 - 58.0
28/02:08am 18.2 14.0 17.2 94 0.6 SSE 35 54 19 29 1015.2 - 58.0
28/02:07am 18.1 14.0 17.3 95 0.5 SSE 35 54 19 29 1015.2 - 58.2
28/02:00am 18.3 13.6 17.8 97 0.3 SE 39 50 21 27 1015.2 - 58.0
28/01:30am 18.2 13.0 17.4 95 0.5 SE 41 54 22 29 1015.4 - 58.0
28/01:00am 17.9 13.2 17.7 99 0.1 SE 39 54 21 29 1015.3 - 58.0
28/12:46am 17.4 12.5 17.2 99 0.1 SE 39 56 21 30 1015.4 - 58.0
28/12:38am 16.3 10.2 16.1 99 0.1 ESE 43 52 23 28 1015.4 - 58.2
28/12:36am 16.3 6.7 16.1 99 0.1 SE 61 80 33 43 1015.4 - 58.2
28/12:35am 16.3 6.7 16.1 99 0.1 SE 61 80 33 43 1015.4 - 58.0
28/12:33am 17.0 6.2 16.7 98 0.2 SE 69 80 37 43 1015.3 - 58.2
28/12:32am 17.0 6.2 16.7 98 0.2 SE 69 80 37 43 1015.3 - 58.0
28/12:31am 17.9 11.5 17.7 99 0.1 SE 48 69 26 37 1015.4 - 58.2
28/12:30am 17.9 11.5 17.7 99 0.1 SE 48 69 26 37 1015.4 - 58.0
28/12:00am 17.3 11.6 17.3 100 0.0 SE 43 56 23 30 1015.5 1015.4 57.8
 
Date/Time
EST
Temp
°C
App
Temp
°C
Dew
Point
Rel
Hum
%
Delta-T
°C
Wind Press
QNH
hPa
Press
MSL
hPa
Rain
since 9 am
mm
Dir
 
Spd
km/h
Gust
km/h
Spd
kts
Gust
kts
27/11:42pm 16.7 11.6 16.7 100 0.0 SE 39 54 21 29 1015.5 - 57.8
27/11:30pm 16.5 7.9 16.5 100 0.0 SE 57 76 31 41 1015.4 - 57.2
27/11:24pm 17.3 11.6 17.3 100 0.0 SE 43 76 23 41 1015.3 - 57.2
27/11:23pm 17.3 11.6 17.3 100 0.0 SE 43 76 23 41 1015.3 - 57.0
27/11:08pm 17.4 12.5 17.4 100 0.0 SE 39 57 21 31 1015.3 - 57.2
27/11:07pm 17.4 12.5 17.4 100 0.0 SE 39 57 21 31 1015.3 - 57.0
27/11:00pm 17.0 14.1 17.0 100 0.0 ESE 28 43 15 23 1015.5 - 57.0
27/10:30pm 16.5 13.0 16.5 100 0.0 SE 30 41 16 22 1015.5 - 45.8
27/10:00pm 17.3 13.2 17.3 100 0.0 SE 35 44 19 24 1015.5 - 43.6
27/09:30pm 16.9 11.5 16.9 100 0.0 ESE 41 52 22 28 1015.5 - 43.6
27/09:00pm 16.5 10.3 16.5 100 0.0 SE 44 54 24 29 1015.2 1015.2 43.6
27/08:30pm 16.4 10.2 16.4 100 0.0 SE 44 63 24 34 1015.4 - 43.2
27/08:29pm 16.6 10.7 16.6 100 0.0 SE 43 63 23 34 1015.4 - 43.4
27/08:28pm 16.6 10.7 16.6 100 0.0 SE 43 63 23 34 1015.4 - 43.2
27/08:00pm 17.0 12.4 17.0 100 0.0 SE 37 46 20 25 1015.3 - 41.4
27/07:30pm 17.0 12.0 17.0 100 0.0 SE 39 52 21 28 1015.4 - 41.4
27/07:23pm 16.8 13.0 16.8 100 0.0 SSE 32 50 17 27 1015.3 - 41.6
27/07:22pm 16.8 13.0 16.8 100 0.0 SSE 32 50 17 27 1015.3 - 41.4
27/07:00pm 16.4 12.5 16.4 100 0.0 SSE 32 44 17 24 1015.2 - 41.4
27/06:38pm 16.4 12.3 16.4 100 0.0 SSE 33 54 18 29 1014.9 - 41.2
27/06:30pm 16.4 12.3 16.4 100 0.0 SSE 33 50 18 27 1014.8 - 41.2
27/06:00pm 16.1 11.1 16.1 100 0.0 SSE 37 59 20 32 1014.2 1014.2 41.2
27/05:30pm 15.9 10.1 15.9 100 0.0 SSE 41 59 22 32 1014.0 - 41.0
27/05:00pm 15.8 12.4 15.8 100 0.0 SSE 28 48 15 26 1013.9 - 40.4
27/04:59pm 15.8 - 16.0 - - SSE 28 48 15 26 1013.9 - 40.4
27/04:30pm 13.2 11.4 13.2 100 0.0 SSW 15 28 8 15 1014.2 - 38.0
27/04:00pm 13.7 11.1 13.7 100 0.0 S 20 30 11 16 1014.0 - 35.2
27/03:30pm 13.0 11.1 13.0 100 0.0 SW 15 26 8 14 1014.5 - 32.0
27/03:00pm 13.5 12.1 13.5 100 0.0 SW 13 22 7 12 1015.0 1014.8 29.6
27/02:30pm 14.0 12.4 14.0 100 0.0 SSW 15 32 8 17 1015.0 - 27.4
27/02:00pm 14.3 13.6 14.3 100 0.0 SSW 11 19 6 10 1015.1 - 22.6
27/01:30pm 14.5 13.9 14.5 100 0.0 SW 11 17 6 9 1015.6 - 19.8
27/01:00pm 15.1 13.0 15.1 100 0.0 SSE 20 28 11 15 1015.8 - 17.6
27/12:30pm 14.5 11.8 14.5 100 0.0 SSE 22 35 12 19 1015.9 - 16.2
27/12:21pm 14.0 9.9 13.8 99 0.1 SSE 28 48 15 26 1016.2 - 16.0
27/12:20pm 14.0 9.9 13.8 99 0.1 SSE 28 48 15 26 1016.2 - 15.8
27/12:00pm 15.7 13.0 15.7 100 0.0 SE 24 33 13 18 1016.4 1016.3 11.6
27/11:30am 15.3 8.7 15.3 100 0.0 SE 44 59 24 32 1016.5 - 10.6
27/11:00am 15.6 9.3 15.6 100 0.0 SE 43 54 23 29 1016.9 - 9.0
27/10:32am 15.6 11.7 15.6 100 0.0 SE 30 50 16 27 1017.0 - 7.0
27/10:31am 15.6 11.7 15.6 100 0.0 SE 30 50 16 27 1017.0 - 6.8
27/10:30am 15.4 11.9 15.4 100 0.0 SE 28 43 15 23 1017.1 - 6.6
27/10:13am 15.2 10.8 15.2 100 0.0 ESE 32 46 17 25 1017.2 - 3.0
27/10:12am 15.1 11.4 15.1 100 0.0 ESE 28 35 15 19 1017.3 - 2.8
27/10:00am 14.3 14.0 14.3 100 0.0 SW 9 19 5 10 1017.3 - 1.8
27/09:30am 14.0 12.8 14.0 100 0.0 SW 13 26 7 14 1017.2 - 0.8
27/09:00am 13.6 12.3 13.6 100 0.0 SSW 13 22 7 12 1017.6 1017.5 26.4
27/08:30am 13.4 11.6 13.4 100 0.0 SSW 15 24 8 13 1017.4 - 25.6
27/08:00am 13.1 11.2 13.1 100 0.0 SSW 15 24 8 13 1017.1 - 24.4
27/07:30am 13.2 11.4 13.2 100 0.0 SSW 15 20 8 11 1017.2 - 23.0
27/07:00am 13.5 11.4 13.5 100 0.0 SSW 17 28 9 15 1016.9 - 21.2
27/06:30am 13.9 13.1 13.9 100 0.0 S 11 19 6 10 1016.7 - 15.6
27/06:00am 14.0 11.7 14.0 100 0.0 S 19 26 10 14 1015.9 1015.8 12.2
27/05:30am 14.3 12.4 14.3 100 0.0 S 17 24 9 13 1015.9 - 8.6
27/05:00am 14.6 14.4 14.6 100 0.0 SW 9 15 5 8 1015.6 - 7.2
27/04:30am 14.5 13.9 14.5 100 0.0 SSW 11 15 6 8 1015.3 - 7.0
27/04:00am 14.5 14.2 14.5 100 0.0 SSW 9 13 5 7 1015.6 - 6.8
27/03:30am 14.4 14.1 14.4 100 0.0 SW 9 20 5 11 1015.4 - 6.8
27/03:00am 14.3 13.6 14.3 100 0.0 SSW 11 17 6 9 1015.6 1015.5 6.8
27/02:30am 14.6 14.0 14.6 100 0.0 SSW 11 17 6 9 1015.4 - 6.8
27/02:00am 15.1 15.1 15.1 100 0.0 SW 9 15 5 8 1015.7 - 6.8
27/01:30am 15.5 15.2 15.5 100 0.0 SSW 11 19 6 10 1016.2 - 6.8
27/01:00am 15.7 14.4 15.7 100 0.0 SSE 17 24 9 13 1016.6 - 6.6
27/12:30am 15.2 15.8 15.2 100 0.0 S 6 13 3 7 1016.9 - 6.4
27/12:00am 15.1 15.1 15.1 100 0.0 SW 9 13 5 7 1017.1 1017.0 4.2
 
Date/Time
EST
Temp
°C
App
Temp
°C
Dew
Point
Rel
Hum
%
Delta-T
°C
Wind Press
QNH
hPa
Press
MSL
hPa
Rain
since 9 am
mm
Dir
 
Spd
km/h
Gust
km/h
Spd
kts
Gust
kts
26/11:30pm 15.2 14.8 15.2 100 0.0 S 11 17 6 9 1017.4 - 2.4
26/11:00pm 15.2 14.4 15.2 100 0.0 S 13 19 7 10 1017.4 - 2.2
26/10:30pm 15.1 14.7 15.1 100 0.0 SSW 11 15 6 8 1017.7 - 2.2
26/10:00pm 15.2 14.8 15.2 100 0.0 S 11 19 6 10 1017.6 - 2.0
26/09:30pm 16.5 15.1 16.5 100 0.0 SSE 19 30 10 16 1017.6 - 2.0
26/09:00pm 17.5 16.4 17.3 99 0.1 SE 19 26 10 14 1018.0 1017.9 0.8
26/08:30pm 16.9 15.3 16.1 95 0.5 SSE 19 26 10 14 1017.7 - 0.8
26/08:00pm 17.6 16.0 17.4 99 0.1 SE 22 28 12 15 1017.7 - 0.8
26/07:30pm 17.8 16.1 17.3 97 0.3 SSE 22 33 12 18 1017.8 - 0.8
26/07:00pm 17.9 14.3 17.3 96 0.4 SSE 32 44 17 24 1017.6 - 0.8
26/06:50pm 18.0 15.4 17.7 98 0.2 SE 28 46 15 25 1017.6 - 0.8
26/06:49pm 18.0 15.4 17.7 98 0.2 SE 28 46 15 25 1017.6 - 0.8
26/06:30pm 18.3 16.7 16.5 89 1.1 SSE 20 37 11 20 1017.5 - 0.8
26/06:00pm 17.9 15.7 16.9 94 0.6 SE 24 32 13 17 1017.3 1017.1 0.8
26/05:30pm 18.0 14.8 17.2 95 0.5 SE 30 41 16 22 1017.0 - 0.8
26/05:00pm 18.6 16.4 16.8 89 1.1 SSE 24 35 13 19 1016.9 - 0.8
26/04:30pm 18.9 16.7 17.0 89 1.1 SSE 24 33 13 18 1016.6 - 0.8
26/04:00pm 19.0 16.1 16.2 84 1.7 SE 26 35 14 19 1016.4 - 0.8
26/03:30pm 19.2 16.3 16.2 83 1.8 SE 26 33 14 18 1016.4 - 0.8
26/03:00pm 19.3 15.8 16.5 84 1.7 SE 30 41 16 22 1016.5 1016.4 0.8
26/02:30pm 18.8 15.6 16.4 86 1.4 SE 28 37 15 20 1016.6 - 0.8
26/02:00pm 19.8 17.2 17.9 89 1.2 SE 28 39 15 21 1016.8 - 0.8
26/01:30pm 19.8 16.4 17.6 87 1.3 SE 32 39 17 21 1017.1 - 0.6
26/01:00pm 19.8 16.7 17.6 87 1.3 SE 30 35 16 19 1017.3 - 0.6
26/12:30pm 19.6 16.9 17.6 88 1.2 SE 28 33 15 18 1017.6 - 0.6
26/12:00pm 19.2 16.5 17.5 90 1.0 SE 28 33 15 18 1018.1 1018.0 0.6
26/11:48am 19.8 17.2 17.8 88 1.2 SE 28 33 15 18 1018.2 - 0.6
26/11:30am 19.5 17.7 17.8 90 1.0 SE 24 30 13 16 1018.6 - 0.6
26/11:00am 17.1 18.2 17.1 100 0.0 SSW 7 11 4 6 1019.0 - 0.6
26/10:30am 16.2 16.2 16.2 100 0.0 SW 11 19 6 10 1019.2 - 0.6
26/10:00am 16.6 17.5 16.6 100 0.0 W 7 11 4 6 1019.3 - 0.6
26/09:30am 17.4 17.8 17.2 99 0.1 WSW 11 19 6 10 1019.5 - 0.0
26/09:00am 16.3 16.7 16.3 100 0.0 WSW 9 13 5 7 1019.5 1019.5 5.2
26/08:30am 14.8 14.3 14.8 100 0.0 WSW 11 15 6 8 1019.5 - 5.2
26/08:00am 17.1 17.7 16.9 99 0.1 ESE 9 15 5 8 1019.2 - 5.2
26/07:30am 16.5 15.8 16.3 99 0.1 ESE 15 20 8 11 1019.1 - 5.2
26/07:00am 16.4 14.4 16.4 100 0.0 SE 22 28 12 15 1019.2 - 5.2
26/06:30am 15.9 13.7 15.9 100 0.0 SSE 22 33 12 18 1019.0 - 5.2
26/06:00am 14.4 13.0 14.4 100 0.0 S 15 20 8 11 1018.8 1018.8 5.2
26/05:30am 14.2 12.3 14.2 100 0.0 SSW 17 24 9 13 1018.3 - 5.0
26/05:00am 13.7 12.8 13.7 100 0.0 SSW 11 17 6 9 1018.1 - 4.8
26/04:30am 13.0 12.2 13.0 100 0.0 SW 9 15 5 8 1017.7 - 4.8
26/04:00am 12.9 12.1 12.9 100 0.0 SW 9 17 5 9 1017.7 - 4.6
26/03:30am 13.1 12.7 13.1 100 0.0 WSW 7 13 4 7 1018.0 - 2.8
26/03:00am 13.3 12.6 13.3 100 0.0 SSW 9 15 5 8 1017.9 1017.8 2.6
26/02:30am 13.2 12.9 13.2 100 0.0 WSW 7 13 4 7 1018.1 - 2.6
26/02:00am 13.4 12.8 13.4 100 0.0 SW 9 15 5 8 1018.6 - 2.4
26/01:30am 13.6 13.4 13.6 100 0.0 SW 7 13 4 7 1018.8 - 2.2
26/01:00am 13.9 13.4 13.9 100 0.0 SW 9 15 5 8 1019.1 - 1.8
26/12:30am 13.8 13.3 13.8 100 0.0 SW 9 17 5 9 1019.4 - 1.8
26/12:00am 14.1 13.3 14.1 100 0.0 SW 11 17 6 9 1019.6 1019.6 1.8
 
Date/Time
EST
Temp
°C
App
Temp
°C
Dew
Point
Rel
Hum
%
Delta-T
°C
Wind Press
QNH
hPa
Press
MSL
hPa
Rain
since 9 am
mm
Dir
 
Spd
km/h
Gust
km/h
Spd
kts
Gust
kts
25/11:30pm 14.4 14.5 14.4 100 0.0 SSW 7 11 4 6 1019.8 - 1.6
25/11:00pm 14.5 14.6 14.5 100 0.0 SW 7 15 4 8 1020.1 - 1.6
25/10:30pm 15.1 15.0 14.9 99 0.1 SW 9 13 5 7 1020.2 - 1.6
25/10:00pm 15.1 15.0 14.9 99 0.1 SW 9 15 5 8 1020.3 - 1.6
25/09:30pm 15.5 15.5 15.3 99 0.1 SSW 9 15 5 8 1020.6 - 1.6
25/09:00pm 15.5 15.5 15.3 99 0.1 SSW 9 13 5 7 1020.6 1020.6 1.6
25/08:30pm 15.5 15.1 15.3 99 0.1 SSW 11 17 6 9 1020.7 - 1.6
25/08:00pm 15.6 15.3 15.4 99 0.1 S 11 17 6 9 1020.7 - 1.6
25/07:30pm 15.7 14.7 15.5 99 0.1 S 15 20 8 11 1020.6 - 1.6
25/07:00pm 15.8 14.4 15.6 99 0.1 S 17 26 9 14 1020.6 - 1.6
25/06:30pm 16.0 15.1 15.8 99 0.1 S 15 19 8 10 1020.4 - 1.6
25/06:00pm 16.2 15.4 16.0 99 0.1 S 15 22 8 12 1020.3 1020.3 1.6
25/05:30pm 17.0 16.5 16.8 99 0.1 S 15 20 8 11 1020.2 - 1.6
25/05:00pm 17.2 14.3 15.0 87 1.3 SSE 24 37 13 20 1020.1 - 1.6
25/04:30pm 17.7 16.0 16.2 91 0.9 SSE 20 33 11 18 1019.9 - 1.6
25/04:00pm 18.7 16.7 17.4 92 0.8 SSE 24 37 13 20 1020.0 - 1.6
25/03:30pm 18.7 16.6 17.2 91 0.9 SSE 24 33 13 18 1019.8 - 1.6
25/03:00pm 18.9 17.2 17.2 90 1.0 SSE 22 35 12 19 1019.8 1019.8 1.6

Other Formats:

Comma delimited format used in spreadsheet applications
http://www.bom.gov.au/fwo/IDN60801/IDN60801.94589.axf

JavaScript Object Notation format (JSON) in row-major order
http://www.bom.gov.au/fwo/IDN60801/IDN60801.94589.json